createdAt,value
2023-04-30T00:00:38.567Z,38.87
2023-04-30T00:01:38.629Z,37.81
2023-04-30T00:02:38.670Z,39.26
2023-04-30T00:03:38.630Z,39.74
2023-04-30T00:04:38.574Z,39.06
2023-04-30T00:05:38.576Z,39.54
2023-04-30T00:06:38.608Z,38.58
2023-04-30T00:07:38.560Z,38.78
2023-04-30T00:08:38.568Z,38.78
2023-04-30T00:09:38.579Z,38.49
2023-04-30T00:10:38.567Z,38.39
2023-04-30T00:11:38.571Z,38.10
2023-04-30T00:12:38.577Z,37.81
2023-04-30T00:13:38.574Z,37.52
2023-04-30T00:14:38.572Z,37.52
2023-04-30T00:15:38.612Z,37.43
2023-04-30T00:16:38.636Z,37.52
2023-04-30T00:17:38.643Z,37.81
2023-04-30T00:18:38.616Z,37.52
2023-04-30T00:19:38.591Z,37.62
2023-04-30T00:20:38.595Z,37.63
2023-04-30T00:21:38.594Z,37.52
2023-04-30T00:22:38.593Z,37.63
2023-04-30T00:23:38.595Z,37.71
2023-04-30T00:24:38.601Z,37.45
2023-04-30T00:25:38.613Z,37.25
2023-04-30T00:26:38.619Z,37.15
2023-04-30T00:27:40.666Z,37.71
2023-04-30T00:28:38.611Z,37.54
2023-04-30T00:29:38.609Z,37.23
2023-04-30T00:30:38.617Z,37.45
2023-04-30T00:31:38.770Z,37.43
2023-04-30T00:32:38.672Z,37.43
2023-04-30T00:33:38.613Z,37.04
2023-04-30T00:34:38.635Z,36.94
2023-04-30T00:35:38.619Z,37.33
2023-04-30T00:36:38.631Z,37.13
2023-04-30T00:37:38.621Z,37.04
2023-04-30T00:38:38.639Z,36.94
2023-04-30T00:39:38.635Z,37.04
2023-04-30T00:40:38.639Z,37.71
2023-04-30T00:41:38.645Z,37.04
2023-04-30T00:42:38.639Z,37.33
2023-04-30T00:43:38.676Z,37.23
2023-04-30T00:44:38.636Z,36.94
2023-04-30T00:45:38.665Z,36.94
2023-04-30T00:46:38.651Z,37.04
2023-04-30T00:47:38.715Z,36.85
2023-04-30T00:48:38.651Z,37.04
2023-04-30T00:49:38.648Z,37.13
2023-04-30T00:50:38.654Z,37.04
2023-04-30T00:51:38.659Z,37.04
2023-04-30T00:52:38.659Z,37.13
2023-04-30T00:53:38.656Z,37.33
2023-04-30T00:54:38.660Z,37.52
2023-04-30T00:55:38.660Z,37.13
2023-04-30T00:56:38.672Z,37.33
2023-04-30T00:57:38.667Z,37.04
2023-04-30T00:58:38.674Z,37.04
2023-04-30T00:59:38.672Z,37.04
2023-04-30T01:00:38.683Z,37.23
2023-04-30T01:01:38.803Z,37.13
2023-04-30T01:02:38.821Z,36.94
2023-04-30T01:03:38.816Z,37.04
2023-04-30T01:04:38.679Z,37.13
2023-04-30T01:05:38.682Z,36.94
2023-04-30T01:06:38.921Z,37.04
2023-04-30T01:07:38.709Z,37.13
2023-04-30T01:08:38.695Z,36.94
2023-04-30T01:09:38.692Z,37.04
2023-04-30T01:10:38.697Z,37.04
2023-04-30T01:11:38.698Z,37.23
2023-04-30T01:12:38.708Z,37.52
2023-04-30T01:13:38.699Z,37.13
2023-04-30T01:14:38.707Z,38.01
2023-04-30T01:15:38.738Z,37.62
2023-04-30T01:16:38.709Z,38.49
2023-04-30T01:17:38.853Z,37.91
2023-04-30T01:18:38.748Z,38.87
2023-04-30T01:19:38.743Z,38.68
2023-04-30T01:20:38.718Z,39.06
2023-04-30T01:21:38.716Z,38.58
2023-04-30T01:22:38.720Z,38.58
2023-04-30T01:23:38.718Z,38.78
2023-04-30T01:24:38.731Z,38.49
2023-04-30T01:25:38.724Z,38.87
2023-04-30T01:26:38.729Z,39.06
2023-04-30T01:27:38.736Z,38.29
2023-04-30T01:28:38.748Z,38.58
2023-04-30T01:29:38.732Z,38.68
2023-04-30T01:30:38.746Z,39.16
2023-04-30T01:31:38.790Z,38.87
2023-04-30T01:32:38.765Z,39.16
2023-04-30T01:33:38.749Z,38.87
2023-04-30T01:34:38.745Z,39.54
2023-04-30T01:35:38.846Z,38.97
2023-04-30T01:36:38.809Z,39.06
2023-04-30T01:37:38.753Z,39.06
2023-04-30T01:38:38.755Z,39.16
2023-04-30T01:39:38.757Z,39.54
2023-04-30T01:40:38.766Z,39.64
2023-04-30T01:41:38.761Z,39.45
2023-04-30T01:42:38.770Z,39.64
2023-04-30T01:43:38.770Z,39.06
2023-04-30T01:44:38.774Z,38.87
2023-04-30T01:45:38.767Z,38.97
2023-04-30T01:46:38.981Z,39.06
2023-04-30T01:47:38.847Z,39.36
2023-04-30T01:48:38.780Z,39.74
2023-04-30T01:49:38.803Z,38.58
2023-04-30T01:50:38.784Z,39.06
2023-04-30T01:51:38.811Z,39.06
2023-04-30T01:52:38.793Z,38.87
2023-04-30T01:53:38.793Z,38.78
2023-04-30T01:54:38.806Z,38.97
2023-04-30T01:55:38.799Z,39.26
2023-04-30T01:56:38.796Z,38.78
2023-04-30T01:57:38.803Z,39.06
2023-04-30T01:58:38.795Z,38.68
2023-04-30T01:59:38.807Z,39.54
2023-04-30T02:00:38.808Z,38.97
2023-04-30T02:01:38.888Z,38.49
2023-04-30T02:02:38.855Z,39.64
2023-04-30T02:03:38.975Z,39.54
2023-04-30T02:04:38.816Z,39.16
2023-04-30T02:05:38.810Z,39.16
2023-04-30T02:06:38.955Z,39.16
2023-04-30T02:07:38.844Z,38.97
2023-04-30T02:08:38.822Z,39.26
2023-04-30T02:09:38.822Z,40.12
2023-04-30T02:10:38.827Z,39.94
2023-04-30T02:11:38.876Z,39.64
2023-04-30T02:12:38.833Z,40.32
2023-04-30T02:13:38.823Z,39.74
2023-04-30T02:14:38.836Z,40.03
2023-04-30T02:15:38.844Z,39.94
2023-04-30T02:16:38.882Z,40.12
2023-04-30T02:17:38.896Z,39.64
2023-04-30T02:18:38.839Z,39.64
2023-04-30T02:19:38.848Z,39.64
2023-04-30T02:20:38.845Z,40.03
2023-04-30T02:21:38.843Z,39.74
2023-04-30T02:22:38.857Z,40.12
2023-04-30T02:23:38.877Z,40.03
2023-04-30T02:24:38.854Z,39.94
2023-04-30T02:25:38.858Z,40.03
2023-04-30T02:26:38.851Z,40.12
2023-04-30T02:27:38.866Z,40.03
2023-04-30T02:28:38.865Z,39.36
2023-04-30T02:29:38.859Z,39.45
2023-04-30T02:30:38.865Z,39.54
2023-04-30T02:31:38.918Z,39.16
2023-04-30T02:32:38.912Z,38.49
2023-04-30T02:33:38.869Z,38.20
2023-04-30T02:34:38.870Z,38.20
2023-04-30T02:35:38.872Z,38.10
2023-04-30T02:36:38.876Z,37.91
2023-04-30T02:37:38.873Z,37.91
2023-04-30T02:38:38.882Z,38.01
2023-04-30T02:39:38.905Z,38.01
2023-04-30T02:40:38.884Z,37.81
2023-04-30T02:41:38.882Z,37.81
2023-04-30T02:42:38.896Z,37.71
2023-04-30T02:43:38.893Z,37.62
2023-04-30T02:44:38.892Z,37.71
2023-04-30T02:45:38.912Z,37.52
2023-04-30T02:46:38.895Z,37.62
2023-04-30T02:47:38.922Z,37.81
2023-04-30T02:48:38.908Z,37.71
2023-04-30T02:49:38.901Z,37.71
2023-04-30T02:50:38.899Z,37.81
2023-04-30T02:51:38.950Z,37.81
2023-04-30T02:52:38.899Z,37.81
2023-04-30T02:53:38.927Z,37.81
2023-04-30T02:54:38.919Z,37.52
2023-04-30T02:55:38.932Z,37.81
2023-04-30T02:56:38.917Z,37.62
2023-04-30T02:57:38.931Z,37.33
2023-04-30T02:58:38.916Z,37.62
2023-04-30T02:59:38.919Z,37.62
2023-04-30T03:00:38.925Z,37.43
2023-04-30T03:01:38.971Z,37.71
2023-04-30T03:02:39.012Z,37.81
2023-04-30T03:03:38.960Z,37.62
2023-04-30T03:04:38.936Z,37.52
2023-04-30T03:05:38.928Z,37.62
2023-04-30T03:06:39.022Z,37.52
2023-04-30T03:07:38.937Z,37.81
2023-04-30T03:08:38.947Z,37.52
2023-04-30T03:09:38.937Z,37.33
2023-04-30T03:10:38.948Z,37.71
2023-04-30T03:11:38.981Z,37.52
2023-04-30T03:12:38.957Z,37.62
2023-04-30T03:13:38.944Z,37.62
2023-04-30T03:14:38.945Z,37.62
2023-04-30T03:15:38.947Z,37.62
2023-04-30T03:16:39.055Z,37.62
2023-04-30T03:17:39.038Z,37.52
2023-04-30T03:18:38.963Z,37.71
2023-04-30T03:19:38.965Z,37.52
2023-04-30T03:20:38.965Z,37.52
2023-04-30T03:21:38.960Z,37.33
2023-04-30T03:22:38.969Z,37.33
2023-04-30T03:23:38.969Z,37.52
2023-04-30T03:24:38.980Z,37.62
2023-04-30T03:25:38.971Z,37.62
2023-04-30T03:26:38.976Z,37.71
2023-04-30T03:27:38.997Z,37.52
2023-04-30T03:28:38.988Z,37.52
2023-04-30T03:29:38.979Z,37.91
2023-04-30T03:30:38.986Z,37.62
2023-04-30T03:31:39.087Z,37.71
2023-04-30T03:32:39.065Z,37.71
2023-04-30T03:33:39.032Z,37.91
2023-04-30T03:34:38.995Z,37.71
2023-04-30T03:35:38.995Z,37.71
2023-04-30T03:36:39.055Z,37.81
2023-04-30T03:37:39.001Z,37.91
2023-04-30T03:38:39.002Z,38.01
2023-04-30T03:39:39.012Z,37.81
2023-04-30T03:40:39.008Z,38.01
2023-04-30T03:41:39.311Z,38.20
2023-04-30T03:42:39.026Z,38.10
2023-04-30T03:43:39.043Z,38.20
2023-04-30T03:44:39.013Z,38.68
2023-04-30T03:45:39.024Z,38.20
2023-04-30T03:46:39.129Z,38.39
2023-04-30T03:47:39.080Z,38.20
2023-04-30T03:48:39.024Z,39.06
2023-04-30T03:49:39.032Z,38.97
2023-04-30T03:50:39.036Z,38.49
2023-04-30T03:51:39.030Z,38.39
2023-04-30T03:52:39.039Z,38.29
2023-04-30T03:53:39.032Z,38.58
2023-04-30T03:54:39.039Z,39.06
2023-04-30T03:55:39.042Z,38.78
2023-04-30T03:56:39.078Z,39.16
2023-04-30T03:57:39.044Z,38.49
2023-04-30T03:58:39.055Z,38.78
2023-04-30T03:59:39.079Z,38.97
2023-04-30T04:00:39.049Z,38.97
2023-04-30T04:01:39.187Z,39.16
2023-04-30T04:02:39.098Z,38.87
2023-04-30T04:03:39.092Z,38.87
2023-04-30T04:04:39.071Z,38.68
2023-04-30T04:05:39.063Z,38.68
2023-04-30T04:06:39.098Z,38.97
2023-04-30T04:07:39.081Z,39.16
2023-04-30T04:08:39.070Z,39.16
2023-04-30T04:09:39.071Z,39.06
2023-04-30T04:10:39.078Z,39.16
2023-04-30T04:11:39.083Z,38.97
2023-04-30T04:12:39.072Z,38.97
2023-04-30T04:13:39.077Z,38.97
2023-04-30T04:14:39.096Z,39.64
2023-04-30T04:15:39.139Z,38.68
2023-04-30T04:16:39.169Z,39.74
2023-04-30T04:17:39.143Z,38.68
2023-04-30T04:18:39.091Z,38.97
2023-04-30T04:19:39.097Z,39.45
2023-04-30T04:20:39.091Z,39.45
2023-04-30T04:21:39.093Z,38.97
2023-04-30T04:22:39.145Z,38.29
2023-04-30T04:23:39.106Z,38.97
2023-04-30T04:24:39.101Z,38.58
2023-04-30T04:25:39.096Z,38.29
2023-04-30T04:26:39.107Z,38.01
2023-04-30T04:27:39.111Z,38.87
2023-04-30T04:28:39.129Z,38.97
2023-04-30T04:29:39.107Z,39.16
2023-04-30T04:30:39.110Z,39.06
2023-04-30T04:31:39.146Z,39.16
2023-04-30T04:32:39.200Z,38.87
2023-04-30T04:33:39.137Z,38.97
2023-04-30T04:34:39.118Z,38.87
2023-04-30T04:35:39.133Z,38.58
2023-04-30T04:36:39.127Z,38.87
2023-04-30T04:37:39.124Z,39.06
2023-04-30T04:38:39.170Z,39.54
2023-04-30T04:39:39.127Z,39.36
2023-04-30T04:40:39.123Z,38.87
2023-04-30T04:41:39.129Z,38.78
2023-04-30T04:42:39.144Z,38.58
2023-04-30T04:43:39.139Z,39.06
2023-04-30T04:44:39.138Z,38.97
2023-04-30T04:45:39.135Z,38.87
2023-04-30T04:46:39.183Z,38.78
2023-04-30T04:47:39.244Z,38.97
2023-04-30T04:48:39.146Z,39.64
2023-04-30T04:49:39.150Z,39.64
2023-04-30T04:50:39.148Z,39.06
2023-04-30T04:51:39.154Z,38.49
2023-04-30T04:52:39.158Z,38.58
2023-04-30T04:53:39.151Z,38.39
2023-04-30T04:54:39.155Z,37.91
2023-04-30T04:55:39.170Z,37.81
2023-04-30T04:56:39.158Z,37.62
2023-04-30T04:57:39.157Z,37.71
2023-04-30T04:58:39.164Z,37.33
2023-04-30T04:59:39.172Z,37.52
2023-04-30T05:00:39.169Z,37.43
2023-04-30T05:01:39.233Z,37.13
2023-04-30T05:02:39.294Z,36.85
2023-04-30T05:03:39.314Z,36.94
2023-04-30T05:04:39.180Z,36.94
2023-04-30T05:05:39.183Z,37.04
2023-04-30T05:06:39.305Z,37.13
2023-04-30T05:07:39.190Z,36.94
2023-04-30T05:08:39.184Z,37.04
2023-04-30T05:09:39.194Z,37.04
2023-04-30T05:10:39.184Z,37.23
2023-04-30T05:11:39.198Z,36.94
2023-04-30T05:12:39.357Z,37.04
2023-04-30T05:13:39.192Z,36.94
2023-04-30T05:14:39.193Z,36.85
2023-04-30T05:15:39.200Z,36.65
2023-04-30T05:16:39.344Z,36.85
2023-04-30T05:17:39.299Z,36.85
2023-04-30T05:18:39.210Z,37.13
2023-04-30T05:19:39.227Z,36.94
2023-04-30T05:20:39.218Z,37.13
2023-04-30T05:21:39.211Z,37.33
2023-04-30T05:22:39.214Z,37.04
2023-04-30T05:23:39.220Z,37.04
2023-04-30T05:24:39.214Z,37.04
2023-04-30T05:25:39.223Z,37.62
2023-04-30T05:26:39.229Z,37.33
2023-04-30T05:27:39.228Z,37.45
2023-04-30T05:28:39.230Z,36.94
2023-04-30T05:29:39.226Z,36.94
2023-04-30T05:30:39.223Z,37.25
2023-04-30T05:31:39.267Z,37.04
2023-04-30T05:32:39.287Z,37.33
2023-04-30T05:33:39.235Z,37.04
2023-04-30T05:34:39.235Z,37.33
2023-04-30T05:35:39.262Z,37.71
2023-04-30T05:36:39.255Z,37.54
2023-04-30T05:37:39.390Z,37.54
2023-04-30T05:38:39.244Z,37.35
2023-04-30T05:39:39.248Z,37.15
2023-04-30T05:40:39.248Z,37.45
2023-04-30T05:41:39.260Z,36.85
2023-04-30T05:42:39.300Z,37.13
2023-04-30T05:43:39.261Z,36.57
2023-04-30T05:44:39.264Z,36.77
2023-04-30T05:45:39.407Z,36.87
2023-04-30T05:46:39.261Z,36.77
2023-04-30T05:47:39.315Z,36.48
2023-04-30T05:48:39.265Z,36.85
2023-04-30T05:49:39.271Z,36.46
2023-04-30T05:50:39.317Z,36.65
2023-04-30T05:51:39.304Z,36.55
2023-04-30T05:52:39.280Z,36.65
2023-04-30T05:53:39.287Z,36.57
2023-04-30T05:54:39.279Z,36.57
2023-04-30T05:55:39.288Z,36.77
2023-04-30T05:56:39.288Z,36.87
2023-04-30T05:57:39.300Z,37.73
2023-04-30T05:58:39.285Z,37.63
2023-04-30T05:59:39.296Z,37.54
2023-04-30T06:00:39.291Z,37.83
2023-04-30T06:01:39.308Z,37.73
2023-04-30T06:02:39.463Z,38.21
2023-04-30T06:03:39.302Z,38.21
2023-04-30T06:04:39.295Z,38.02
2023-04-30T06:05:39.405Z,38.02
2023-04-30T06:06:39.363Z,37.45
2023-04-30T06:07:39.332Z,37.45
2023-04-30T06:08:39.315Z,37.45
2023-04-30T06:09:39.308Z,37.54
2023-04-30T06:10:39.330Z,37.63
2023-04-30T06:11:41.672Z,37.63
2023-04-30T06:12:39.318Z,38.02
2023-04-30T06:13:39.322Z,37.63
2023-04-30T06:14:39.322Z,37.45
2023-04-30T06:15:39.345Z,37.35
2023-04-30T06:16:39.389Z,37.93
2023-04-30T06:17:39.464Z,38.51
2023-04-30T06:18:39.327Z,38.41
2023-04-30T06:19:39.334Z,38.21
2023-04-30T06:20:39.337Z,38.31
2023-04-30T06:21:39.339Z,38.41
2023-04-30T06:22:39.336Z,38.41
2023-04-30T06:23:39.368Z,38.02
2023-04-30T06:24:39.342Z,37.83
2023-04-30T06:25:39.343Z,38.51
2023-04-30T06:26:39.432Z,38.89
2023-04-30T06:27:39.352Z,38.21
2023-04-30T06:28:39.364Z,38.21
2023-04-30T06:29:39.356Z,38.20
2023-04-30T06:30:39.390Z,38.12
2023-04-30T06:31:39.468Z,38.60
2023-04-30T06:32:39.480Z,38.39
2023-04-30T06:33:39.375Z,38.39
2023-04-30T06:34:39.361Z,38.12
2023-04-30T06:35:39.368Z,38.70
2023-04-30T06:36:39.371Z,39.06
2023-04-30T06:37:39.421Z,39.06
2023-04-30T06:38:39.428Z,38.87
2023-04-30T06:39:39.394Z,38.51
2023-04-30T06:40:39.452Z,38.29
2023-04-30T06:41:39.416Z,38.29
2023-04-30T06:42:39.416Z,38.41
2023-04-30T06:43:39.460Z,37.83
2023-04-30T06:44:39.446Z,38.21
2023-04-30T06:45:39.442Z,38.31
2023-04-30T06:46:39.489Z,38.12
2023-04-30T06:47:39.529Z,38.41
2023-04-30T06:48:39.395Z,38.21
2023-04-30T06:49:39.479Z,38.31
2023-04-30T06:50:39.481Z,38.31
2023-04-30T06:51:39.491Z,38.51
2023-04-30T06:52:39.442Z,37.83
2023-04-30T06:53:39.404Z,38.41
2023-04-30T06:54:39.406Z,38.01
2023-04-30T06:55:39.429Z,37.91
2023-04-30T06:56:39.410Z,38.29
2023-04-30T06:57:39.409Z,38.31
2023-04-30T06:58:39.412Z,38.12
2023-04-30T06:59:39.433Z,38.01
2023-04-30T07:00:39.415Z,38.20
2023-04-30T07:01:39.509Z,38.20
2023-04-30T07:02:39.481Z,38.29
2023-04-30T07:03:39.517Z,38.31
2023-04-30T07:04:39.428Z,38.49
2023-04-30T07:05:39.426Z,38.21
2023-04-30T07:06:39.554Z,38.29
2023-04-30T07:07:39.748Z,38.21
2023-04-30T07:08:39.431Z,38.12
2023-04-30T07:09:39.435Z,38.41
2023-04-30T07:10:39.444Z,38.20
2023-04-30T07:11:39.469Z,38.01
2023-04-30T07:12:39.502Z,38.29
2023-04-30T07:13:39.441Z,38.39
2023-04-30T07:14:39.449Z,38.29
2023-04-30T07:15:39.502Z,38.01
2023-04-30T07:16:39.448Z,38.10
2023-04-30T07:17:39.554Z,38.29
2023-04-30T07:18:39.453Z,38.10
2023-04-30T07:19:39.459Z,38.58
2023-04-30T07:20:39.453Z,38.10
2023-04-30T07:21:39.469Z,38.29
2023-04-30T07:22:39.460Z,38.58
2023-04-30T07:23:39.465Z,38.51
2023-04-30T07:24:39.479Z,38.29
2023-04-30T07:25:39.479Z,38.58
2023-04-30T07:26:39.476Z,38.12
2023-04-30T07:27:39.499Z,38.58
2023-04-30T07:28:39.472Z,38.39
2023-04-30T07:29:39.468Z,38.12
2023-04-30T07:30:39.478Z,38.87
2023-04-30T07:31:39.548Z,38.58
2023-04-30T07:32:39.493Z,38.01
2023-04-30T07:33:39.490Z,38.51
2023-04-30T07:34:39.492Z,39.16
2023-04-30T07:35:39.485Z,38.20
2023-04-30T07:36:39.513Z,38.87
2023-04-30T07:37:41.107Z,38.68
2023-04-30T07:38:39.487Z,38.97
2023-04-30T07:39:39.498Z,39.06
2023-04-30T07:40:39.506Z,38.49
2023-04-30T07:41:39.514Z,38.70
2023-04-30T07:42:39.513Z,38.20
2023-04-30T07:43:39.534Z,38.79
2023-04-30T07:44:39.498Z,38.49
2023-04-30T07:45:39.574Z,38.41
2023-04-30T07:46:39.693Z,38.41
2023-04-30T07:47:39.594Z,38.51
2023-04-30T07:48:39.516Z,38.41
2023-04-30T07:49:39.520Z,38.21
2023-04-30T07:50:39.515Z,37.73
2023-04-30T07:51:39.522Z,38.21
2023-04-30T07:52:39.523Z,38.02
2023-04-30T07:53:39.529Z,38.12
2023-04-30T07:54:39.530Z,37.73
2023-04-30T07:55:39.535Z,37.93
2023-04-30T07:56:39.531Z,38.21
2023-04-30T07:57:39.681Z,38.12
2023-04-30T07:58:39.541Z,38.02
2023-04-30T07:59:39.559Z,38.12
2023-04-30T08:00:39.552Z,37.93
2023-04-30T08:01:39.588Z,38.12
2023-04-30T08:02:39.705Z,38.41
2023-04-30T08:03:39.673Z,38.31
2023-04-30T08:04:39.550Z,38.31
2023-04-30T08:05:39.552Z,38.60
2023-04-30T08:06:39.630Z,38.99
2023-04-30T08:07:39.573Z,38.51
2023-04-30T08:08:39.570Z,38.60
2023-04-30T08:09:39.601Z,38.21
2023-04-30T08:10:39.560Z,38.60
2023-04-30T08:11:39.570Z,38.70
2023-04-30T08:12:39.575Z,38.79
2023-04-30T08:13:39.581Z,39.09
2023-04-30T08:14:39.573Z,39.09
2023-04-30T08:15:39.598Z,38.89
2023-04-30T08:16:39.778Z,38.79
2023-04-30T08:17:39.627Z,38.99
2023-04-30T08:18:39.582Z,38.89
2023-04-30T08:19:39.592Z,38.79
2023-04-30T08:20:39.590Z,38.70
2023-04-30T08:21:39.586Z,38.97
2023-04-30T08:22:39.588Z,39.09
2023-04-30T08:23:39.591Z,39.66
2023-04-30T08:24:39.595Z,39.16
2023-04-30T08:25:39.598Z,38.89
2023-04-30T08:26:39.596Z,39.28
2023-04-30T08:27:39.600Z,38.68
2023-04-30T08:28:39.608Z,38.87
2023-04-30T08:29:39.610Z,38.97
2023-04-30T08:30:39.624Z,38.99
2023-04-30T08:31:39.670Z,38.58
2023-04-30T08:32:39.637Z,39.09
2023-04-30T08:33:39.616Z,38.89
2023-04-30T08:34:39.618Z,38.68
2023-04-30T08:35:39.625Z,38.49
2023-04-30T08:36:39.621Z,38.41
2023-04-30T08:37:39.623Z,38.51
2023-04-30T08:38:39.638Z,38.39
2023-04-30T08:39:39.632Z,38.29
2023-04-30T08:41:39.646Z,38.21
2023-04-30T08:42:39.634Z,38.31
2023-04-30T08:43:39.654Z,38.31
2023-04-30T08:44:39.708Z,38.12
2023-04-30T08:45:39.785Z,38.31
2023-04-30T08:46:39.907Z,38.31
2023-04-30T08:47:39.751Z,38.12
2023-04-30T08:48:39.647Z,37.91
2023-04-30T08:49:39.645Z,38.12
2023-04-30T08:50:39.647Z,38.58
2023-04-30T08:51:39.648Z,38.20
2023-04-30T08:52:39.654Z,38.29
2023-04-30T08:53:39.657Z,38.21
2023-04-30T08:54:39.656Z,38.60
2023-04-30T08:55:39.660Z,38.49
2023-04-30T08:56:39.663Z,38.21
2023-04-30T08:57:39.674Z,38.49
2023-04-30T08:58:39.670Z,38.20
2023-04-30T08:59:39.666Z,38.21
2023-04-30T09:00:39.709Z,38.70
2023-04-30T09:01:39.690Z,38.12
2023-04-30T09:02:39.725Z,38.31
2023-04-30T09:03:39.793Z,38.41
2023-04-30T09:04:39.695Z,38.68
2023-04-30T09:05:39.678Z,38.41
2023-04-30T09:06:39.823Z,38.31
2023-04-30T09:07:41.540Z,37.81
2023-04-30T09:08:39.691Z,37.81
2023-04-30T09:09:39.871Z,38.29
2023-04-30T09:10:39.695Z,38.68
2023-04-30T09:11:39.695Z,38.49
2023-04-30T09:12:39.693Z,38.39
2023-04-30T09:13:39.705Z,38.68
2023-04-30T09:14:39.700Z,37.62
2023-04-30T09:15:39.714Z,37.02
2023-04-30T09:16:39.705Z,37.39
2023-04-30T09:17:39.741Z,37.58
2023-04-30T09:18:39.720Z,37.79
2023-04-30T09:19:39.743Z,38.18
2023-04-30T09:20:39.717Z,37.79
2023-04-30T09:21:39.728Z,37.79
2023-04-30T09:22:39.720Z,38.01
2023-04-30T09:23:39.715Z,37.60
2023-04-30T09:24:39.717Z,38.46
2023-04-30T09:25:39.717Z,38.28
2023-04-30T09:26:39.730Z,38.39
2023-04-30T09:27:39.725Z,38.29
2023-04-30T09:28:39.726Z,38.10
2023-04-30T09:29:39.728Z,38.39
2023-04-30T09:30:39.731Z,38.39
2023-04-30T09:31:39.777Z,38.39
2023-04-30T09:32:39.803Z,38.29
2023-04-30T09:33:39.736Z,37.81
2023-04-30T09:34:39.738Z,38.58
2023-04-30T09:35:39.768Z,38.49
2023-04-30T09:36:39.745Z,37.81
2023-04-30T09:37:39.743Z,37.43
2023-04-30T09:38:39.743Z,37.33
2023-04-30T09:39:39.747Z,37.71
2023-04-30T09:40:39.877Z,37.81
2023-04-30T09:41:39.748Z,37.71
2023-04-30T09:42:39.765Z,37.91
2023-04-30T09:43:39.806Z,37.43
2023-04-30T09:44:39.763Z,37.62
2023-04-30T09:45:39.776Z,37.45
2023-04-30T09:46:39.806Z,37.52
2023-04-30T09:47:39.821Z,37.54
2023-04-30T09:48:39.788Z,37.71
2023-04-30T09:49:39.765Z,37.25
2023-04-30T09:50:41.828Z,36.96
2023-04-30T09:51:39.796Z,37.06
2023-04-30T09:52:39.777Z,37.13
2023-04-30T09:53:39.781Z,37.52
2023-04-30T09:54:39.787Z,37.23
2023-04-30T09:55:39.774Z,36.75
2023-04-30T09:56:39.782Z,36.75
2023-04-30T09:57:39.787Z,36.77
2023-04-30T09:58:39.794Z,36.85
2023-04-30T09:59:39.787Z,36.75
2023-04-30T10:00:39.922Z,36.85
2023-04-30T10:01:41.097Z,37.15
2023-04-30T10:02:39.825Z,36.96
2023-04-30T10:03:39.836Z,37.13
2023-04-30T10:04:39.807Z,37.15
2023-04-30T10:05:39.812Z,36.94
2023-04-30T10:06:39.842Z,36.46
2023-04-30T10:07:39.826Z,36.94
2023-04-30T10:08:39.802Z,36.87
2023-04-30T10:09:39.814Z,36.77
2023-04-30T10:10:39.818Z,36.87
2023-04-30T10:11:39.851Z,36.96
2023-04-30T10:12:39.972Z,37.04
2023-04-30T10:13:39.828Z,36.87
2023-04-30T10:14:39.824Z,36.87
2023-04-30T10:15:39.856Z,36.96
2023-04-30T10:16:39.866Z,36.87
2023-04-30T10:17:39.856Z,36.96
2023-04-30T10:18:39.851Z,36.85
2023-04-30T10:19:39.853Z,36.85
2023-04-30T10:20:39.828Z,36.87
2023-04-30T10:21:39.842Z,36.57
2023-04-30T10:22:39.830Z,36.77
2023-04-30T10:23:39.868Z,36.87
2023-04-30T10:24:39.862Z,36.77
2023-04-30T10:25:39.842Z,36.87
2023-04-30T10:26:39.850Z,36.96
2023-04-30T10:27:39.847Z,36.96
2023-04-30T10:28:39.856Z,37.73
2023-04-30T10:29:39.846Z,37.83
2023-04-30T10:30:39.849Z,37.54
2023-04-30T10:31:39.908Z,37.83
2023-04-30T10:32:40.193Z,38.02
2023-04-30T10:33:39.852Z,37.93
2023-04-30T10:34:39.879Z,38.21
2023-04-30T10:35:39.857Z,38.21
2023-04-30T10:36:39.860Z,38.41
2023-04-30T10:37:39.858Z,38.99
2023-04-30T10:38:39.915Z,38.89
2023-04-30T10:39:39.982Z,38.89
2023-04-30T10:40:39.879Z,39.09
2023-04-30T10:41:39.867Z,39.76
2023-04-30T10:42:39.875Z,39.66
2023-04-30T10:43:39.890Z,39.47
2023-04-30T10:44:39.904Z,39.57
2023-04-30T10:45:39.904Z,39.57
2023-04-30T10:46:40.064Z,39.66
2023-04-30T10:47:39.901Z,39.95
2023-04-30T10:48:39.888Z,39.86
2023-04-30T10:49:39.878Z,39.95
2023-04-30T10:50:39.886Z,39.94
2023-04-30T10:51:39.896Z,39.94
2023-04-30T10:52:39.899Z,40.53
2023-04-30T10:53:39.897Z,40.24
2023-04-30T10:54:39.893Z,40.53
2023-04-30T10:55:39.923Z,40.24
2023-04-30T10:56:39.907Z,40.05
2023-04-30T10:57:39.902Z,39.47
2023-04-30T10:58:39.904Z,39.54
2023-04-30T10:59:39.901Z,38.87
2023-04-30T11:00:39.919Z,39.06
2023-04-30T11:01:39.973Z,36.52
2023-04-30T11:02:39.956Z,35.44
2023-04-30T11:03:39.959Z,36.69
2023-04-30T11:04:39.933Z,38.91
2023-04-30T11:05:39.919Z,39.70
2023-04-30T11:06:40.049Z,38.93
2023-04-30T11:07:39.924Z,39.62
2023-04-30T11:08:39.926Z,39.53
2023-04-30T11:09:39.957Z,39.43
2023-04-30T11:10:39.935Z,39.53
2023-04-30T11:11:39.958Z,40.03
2023-04-30T11:12:39.931Z,39.64
2023-04-30T11:13:39.938Z,39.64
2023-04-30T11:14:39.952Z,39.74
2023-04-30T11:15:39.979Z,40.03
2023-04-30T11:16:39.985Z,40.03
2023-04-30T11:17:39.976Z,39.94
2023-04-30T11:18:39.941Z,40.03
2023-04-30T11:19:39.956Z,39.36
2023-04-30T11:20:39.955Z,39.84
2023-04-30T11:21:39.960Z,40.03
2023-04-30T11:22:39.958Z,40.22
2023-04-30T11:23:42.087Z,40.70
2023-04-30T11:24:39.961Z,40.80
2023-04-30T11:25:39.956Z,40.70
2023-04-30T11:26:39.965Z,41.67
2023-04-30T11:27:39.990Z,40.61
2023-04-30T11:28:39.966Z,40.61
2023-04-30T11:29:39.974Z,40.99
2023-04-30T11:30:39.974Z,40.90
2023-04-30T11:31:40.007Z,40.80
2023-04-30T11:32:40.014Z,40.90
2023-04-30T11:33:39.976Z,40.70
2023-04-30T11:34:39.984Z,41.19
2023-04-30T11:35:39.980Z,41.19
2023-04-30T11:36:39.982Z,41.86
2023-04-30T11:37:39.987Z,42.08
2023-04-30T11:38:40.042Z,41.38
2023-04-30T11:39:39.998Z,41.98
2023-04-30T11:40:39.988Z,42.08
2023-04-30T11:41:39.994Z,42.05
2023-04-30T11:42:40.011Z,42.05
2023-04-30T11:43:40.028Z,41.96
2023-04-30T11:44:40.001Z,42.15
2023-04-30T11:45:39.998Z,42.15
2023-04-30T11:46:40.029Z,42.25
2023-04-30T11:47:40.069Z,41.96
2023-04-30T11:48:40.008Z,41.96
2023-04-30T11:49:40.006Z,42.35
2023-04-30T11:50:41.020Z,42.15
2023-04-30T11:51:40.014Z,41.96
2023-04-30T11:52:40.014Z,41.86
2023-04-30T11:53:40.012Z,42.15
2023-04-30T11:54:40.020Z,41.98
2023-04-30T11:55:40.021Z,42.08
2023-04-30T11:56:41.407Z,41.96
2023-04-30T11:57:40.048Z,41.78
2023-04-30T11:58:40.030Z,41.67
2023-04-30T11:59:40.067Z,41.98
2023-04-30T12:00:40.034Z,42.44
2023-04-30T12:01:40.091Z,42.05
2023-04-30T12:02:40.262Z,41.88
2023-04-30T12:03:40.161Z,42.27
2023-04-30T12:04:40.114Z,41.77
2023-04-30T12:05:40.042Z,41.69
2023-04-30T12:06:40.096Z,42.27
2023-04-30T12:07:40.057Z,42.18
2023-04-30T12:08:40.072Z,41.96
2023-04-30T12:09:40.058Z,42.15
2023-04-30T12:10:40.058Z,41.86
2023-04-30T12:11:40.050Z,42.05
2023-04-30T12:12:40.063Z,41.98
2023-04-30T12:13:40.215Z,42.15
2023-04-30T12:14:40.071Z,42.18
2023-04-30T12:15:40.090Z,42.25
2023-04-30T12:16:40.147Z,42.08
2023-04-30T12:17:40.091Z,42.25
2023-04-30T12:18:40.065Z,42.08
2023-04-30T12:19:40.093Z,41.98
2023-04-30T12:20:40.069Z,41.69
2023-04-30T12:21:40.069Z,41.86
2023-04-30T12:22:40.081Z,42.15
2023-04-30T12:23:40.092Z,41.77
2023-04-30T12:24:40.084Z,42.15
2023-04-30T12:25:40.081Z,41.78
2023-04-30T12:26:40.234Z,41.88
2023-04-30T12:27:40.084Z,42.08
2023-04-30T12:28:40.098Z,41.98
2023-04-30T12:29:40.242Z,42.08
2023-04-30T12:30:40.098Z,42.36
2023-04-30T12:31:40.130Z,41.69
2023-04-30T12:32:40.226Z,41.98
2023-04-30T12:33:40.103Z,41.48
2023-04-30T12:34:40.101Z,42.05
2023-04-30T12:35:40.103Z,42.08
2023-04-30T12:36:40.113Z,41.77
2023-04-30T12:37:40.112Z,41.40
2023-04-30T12:38:40.109Z,41.50
2023-04-30T12:39:40.111Z,41.02
2023-04-30T12:40:40.111Z,41.30
2023-04-30T12:41:40.120Z,41.02
2023-04-30T12:42:40.115Z,40.72
2023-04-30T12:43:40.138Z,40.82
2023-04-30T12:44:40.113Z,40.92
2023-04-30T12:45:40.233Z,40.70
2023-04-30T12:46:40.340Z,40.61
2023-04-30T12:47:40.171Z,40.72
2023-04-30T12:48:40.125Z,40.80
2023-04-30T12:49:40.144Z,40.24
2023-04-30T12:50:40.138Z,39.95
2023-04-30T12:51:40.159Z,39.86
2023-04-30T12:52:40.142Z,40.05
2023-04-30T12:53:40.142Z,39.86